Huvudsida
METAR-TAF:

METAR-TAF

Flygplatser :

Volgograd, Ryssland

latitud: 48-47N, longitud: 044-22E, höjd: 145 m

Aktuellt väderrapport

Denna rapport gjordes för 31 minuter sedan, klockan 20:00 UTC
Vind 6 kt från väst/sydväst
Temperatur 4°C
Fuktighet 100%
Tryck 1023 hPa
Sikt: 1100 m
Mulet på en höjd av 100 ft
fuktdis

METAR: URWW 112000Z 24003MPS 1600 1100NE R24/2000U BR OVC001 04/04 Q1023 R24/010070 TEMPO 0300 FG RMK QBB050 OBST OBSC

Tid: 23:31 (20:31 UTC)

Väderprognos

Denna rapport gjordes för 1 timme och 14 minuter sedan, klockan 19:17 UTC
Prognos gäller från 11 kl. 19 UTC till 12 kl. 03 UTC
Vind 2 kt varierande vindriktning
Sikt: 0300 m
Mulet på en höjd av 200 ft
dimma
Temporärt
från 11 kl. 19 UTC till 12 kl. 03 UTC
Vind 6 kt från sydväst
Sikt: 1500 m
lätt duggregn, fuktdis

TAF: URWW 111917Z 1119/1203 VRB01MPS 0300 FG OVC002 TEMPO 1119/1203 22003MPS 1500 -DZ BR

Aktuella väderrapporter och prognoser från 4000 flygplatser (METAR- och TAF-rapporter).

De tillgängliga stationerna syns som gula och röda prickar på kartan.

För musen över prickarna för att se namnen på stationerna.

Klicka sedan för att få väderrapporter och prognoser.

För att ändra kartan: Klicka på de gröna knapparna med ett svart kors på för att zooma in; den gröna knappen med ett streck på för att zooma ut; eller på de gröna pilarna för angränsande kartor.


METAR-TAF: